sensor_id;sensor_type;location;lat;lon;timestamp;pressure;altitude;pressure_sealevel;temperature;humidity
19761;BME280;10039;42.632;23.408;2023-12-29T00:02:08;95689.50;;;3.45;75.41
19761;BME280;10039;42.632;23.408;2023-12-29T00:04:34;95691.22;;;3.57;75.14
19761;BME280;10039;42.632;23.408;2023-12-29T00:07:06;95652.34;;;3.16;75.05
19761;BME280;10039;42.632;23.408;2023-12-29T00:09:33;95646.38;;;3.38;74.94
19761;BME280;10039;42.632;23.408;2023-12-29T00:12:07;95691.97;;;3.76;74.69
19761;BME280;10039;42.632;23.408;2023-12-29T00:14:40;95694.00;;;3.64;74.54
19761;BME280;10039;42.632;23.408;2023-12-29T00:17:06;95706.69;;;3.58;73.81
19761;BME280;10039;42.632;23.408;2023-12-29T00:19:32;95654.31;;;3.19;74.11
19761;BME280;10039;42.632;23.408;2023-12-29T00:22:07;95660.19;;;3.13;74.34
19761;BME280;10039;42.632;23.408;2023-12-29T00:24:40;95684.41;;;3.37;74.41
19761;BME280;10039;42.632;23.408;2023-12-29T00:27:06;95702.06;;;3.33;74.49
19761;BME280;10039;42.632;23.408;2023-12-29T00:29:33;95691.41;;;3.11;74.52
19761;BME280;10039;42.632;23.408;2023-12-29T00:32:06;95659.69;;;3.07;74.40
19761;BME280;10039;42.632;23.408;2023-12-29T00:34:40;95680.25;;;3.17;74.31
19761;BME280;10039;42.632;23.408;2023-12-29T00:37:15;95711.00;;;3.28;74.45
19761;BME280;10039;42.632;23.408;2023-12-29T00:39:41;95655.09;;;2.85;74.94
19761;BME280;10039;42.632;23.408;2023-12-29T00:42:14;95688.81;;;2.95;75.16
19761;BME280;10039;42.632;23.408;2023-12-29T00:44:49;95657.16;;;2.76;75.33
19761;BME280;10039;42.632;23.408;2023-12-29T00:47:15;95659.75;;;2.92;75.75
19761;BME280;10039;42.632;23.408;2023-12-29T00:49:48;95665.25;;;2.68;75.40
19761;BME280;10039;42.632;23.408;2023-12-29T00:52:14;95668.44;;;2.92;75.58
19761;BME280;10039;42.632;23.408;2023-12-29T00:54:47;95673.13;;;2.83;75.74
19761;BME280;10039;42.632;23.408;2023-12-29T00:57:13;95679.53;;;3.01;76.16
19761;BME280;10039;42.632;23.408;2023-12-29T00:59:39;95633.56;;;2.64;76.13
19761;BME280;10039;42.632;23.408;2023-12-29T01:02:08;95627.47;;;2.79;75.85
19761;BME280;10039;42.632;23.408;2023-12-29T01:04:36;95635.38;;;2.79;75.66
19761;BME280;10039;42.632;23.408;2023-12-29T01:07:08;95638.28;;;2.74;75.39
19761;BME280;10039;42.632;23.408;2023-12-29T01:09:38;95673.16;;;3.02;75.38
19761;BME280;10039;42.632;23.408;2023-12-29T01:12:08;95620.94;;;2.73;75.66
19761;BME280;10039;42.632;23.408;2023-12-29T01:14:35;95657.88;;;2.92;75.75
19761;BME280;10039;42.632;23.408;2023-12-29T01:17:09;95678.28;;;3.14;75.54
19761;BME280;10039;42.632;23.408;2023-12-29T01:19:42;95691.63;;;3.21;75.54
19761;BME280;10039;42.632;23.408;2023-12-29T01:22:08;95680.72;;;3.23;75.36
19761;BME280;10039;42.632;23.408;2023-12-29T01:24:39;95638.03;;;2.79;75.03
19761;BME280;10039;42.632;23.408;2023-12-29T01:27:09;95651.66;;;3.00;75.18
19761;BME280;10039;42.632;23.408;2023-12-29T01:29:41;95669.34;;;3.00;75.09
19761;BME280;10039;42.632;23.408;2023-12-29T01:32:07;95647.88;;;2.82;75.22
19761;BME280;10039;42.632;23.408;2023-12-29T01:34:43;95670.38;;;2.95;75.48
19761;BME280;10039;42.632;23.408;2023-12-29T01:37:18;95676.75;;;2.94;75.27
19761;BME280;10039;42.632;23.408;2023-12-29T01:39:44;95638.19;;;2.86;75.23
19761;BME280;10039;42.632;23.408;2023-12-29T01:42:17;95675.44;;;3.04;74.94
19761;BME280;10039;42.632;23.408;2023-12-29T01:44:51;95690.47;;;3.03;75.07
19761;BME280;10039;42.632;23.408;2023-12-29T01:47:25;95630.59;;;2.66;74.99
19761;BME280;10039;42.632;23.408;2023-12-29T01:49:52;95656.78;;;2.93;74.67
19761;BME280;10039;42.632;23.408;2023-12-29T01:52:18;95685.28;;;2.72;75.32
19761;BME280;10039;42.632;23.408;2023-12-29T01:54:51;95660.00;;;2.52;76.07
19761;BME280;10039;42.632;23.408;2023-12-29T01:57:28;95661.19;;;2.39;76.86
19761;BME280;10039;42.632;23.408;2023-12-29T02:00:01;95630.59;;;2.16;77.39
19761;BME280;10039;42.632;23.408;2023-12-29T02:02:27;95653.50;;;2.31;77.97
19761;BME280;10039;42.632;23.408;2023-12-29T02:05:00;95620.38;;;2.15;78.07
19761;BME280;10039;42.632;23.408;2023-12-29T02:07:36;95671.41;;;2.56;78.19
19761;BME280;10039;42.632;23.408;2023-12-29T02:10:03;95656.66;;;2.36;78.05
19761;BME280;10039;42.632;23.408;2023-12-29T02:12:47;95675.38;;;2.50;78.04
19761;BME280;10039;42.632;23.408;2023-12-29T02:15:14;95643.06;;;2.34;77.69
19761;BME280;10039;42.632;23.408;2023-12-29T02:17:54;95649.66;;;2.44;77.45
19761;BME280;10039;42.632;23.408;2023-12-29T02:20:26;95625.56;;;2.26;77.19
19761;BME280;10039;42.632;23.408;2023-12-29T02:23:04;95623.78;;;2.15;77.16
19761;BME280;10039;42.632;23.408;2023-12-29T02:25:50;95634.47;;;2.37;77.10
19761;BME280;10039;42.632;23.408;2023-12-29T02:28:26;95612.06;;;2.13;76.78
19761;BME280;10039;42.632;23.408;2023-12-29T02:31:17;95627.72;;;2.06;77.02
19761;BME280;10039;42.632;23.408;2023-12-29T02:33:50;95615.06;;;1.96;77.45
19761;BME280;10039;42.632;23.408;2023-12-29T02:36:27;95580.69;;;1.89;77.60
19761;BME280;10039;42.632;23.408;2023-12-29T02:38:53;95586.00;;;2.08;77.61
19761;BME280;10039;42.632;23.408;2023-12-29T02:41:26;95578.09;;;2.08;77.10
19761;BME280;10039;42.632;23.408;2023-12-29T02:43:52;95575.16;;;2.09;76.93
19761;BME280;10039;42.632;23.408;2023-12-29T02:46:22;95603.91;;;2.33;76.90
19761;BME280;10039;42.632;23.408;2023-12-29T02:48:51;95629.34;;;2.44;77.43
19761;BME280;10039;42.632;23.408;2023-12-29T02:51:21;95566.75;;;2.04;76.40
19761;BME280;10039;42.632;23.408;2023-12-29T02:53:47;95581.69;;;2.15;76.51
19761;BME280;10039;42.632;23.408;2023-12-29T02:56:21;95590.34;;;2.16;76.56
19761;BME280;10039;42.632;23.408;2023-12-29T02:58:48;95555.56;;;2.07;76.63
19761;BME280;10039;42.632;23.408;2023-12-29T03:01:21;95551.28;;;2.17;76.66
19761;BME280;10039;42.632;23.408;2023-12-29T03:03:46;95585.88;;;2.35;76.47
19761;BME280;10039;42.632;23.408;2023-12-29T03:06:20;95574.69;;;2.22;76.90
19761;BME280;10039;42.632;23.408;2023-12-29T03:08:46;95597.53;;;2.34;76.12
19761;BME280;10039;42.632;23.408;2023-12-29T03:11:19;95558.44;;;2.02;76.10
19761;BME280;10039;42.632;23.408;2023-12-29T03:13:45;95591.19;;;2.19;76.58
19761;BME280;10039;42.632;23.408;2023-12-29T03:16:16;95604.31;;;2.35;76.39
19761;BME280;10039;42.632;23.408;2023-12-29T03:18:47;95533.78;;;2.10;76.12
19761;BME280;10039;42.632;23.408;2023-12-29T03:21:17;95589.06;;;2.10;76.31
19761;BME280;10039;42.632;23.408;2023-12-29T03:23:51;95546.91;;;1.91;76.41
19761;BME280;10039;42.632;23.408;2023-12-29T03:26:18;95587.59;;;2.27;76.49
19761;BME280;10039;42.632;23.408;2023-12-29T03:28:53;95519.06;;;1.90;76.85
19761;BME280;10039;42.632;23.408;2023-12-29T03:31:26;95602.03;;;2.33;76.51
19761;BME280;10039;42.632;23.408;2023-12-29T03:33:55;95530.44;;;1.94;76.40
19761;BME280;10039;42.632;23.408;2023-12-29T03:36:27;95545.22;;;1.83;76.60
19761;BME280;10039;42.632;23.408;2023-12-29T03:39:05;95563.38;;;1.88;77.06
19761;BME280;10039;42.632;23.408;2023-12-29T03:41:38;95578.06;;;1.73;77.90
19761;BME280;10039;42.632;23.408;2023-12-29T03:44:12;95531.41;;;1.55;78.00
19761;BME280;10039;42.632;23.408;2023-12-29T03:46:39;95535.38;;;1.64;77.97
19761;BME280;10039;42.632;23.408;2023-12-29T03:52:06;95535.91;;;1.70;77.78
19761;BME280;10039;42.632;23.408;2023-12-29T03:54:37;95605.13;;;2.05;77.94
19761;BME280;10039;42.632;23.408;2023-12-29T03:57:03;95537.94;;;1.61;77.80
19761;BME280;10039;42.632;23.408;2023-12-29T03:59:40;95604.09;;;1.94;78.39
19761;BME280;10039;42.632;23.408;2023-12-29T04:02:12;95553.28;;;1.59;78.46
19761;BME280;10039;42.632;23.408;2023-12-29T04:04:38;95561.34;;;1.66;78.45
19761;BME280;10039;42.632;23.408;2023-12-29T04:07:05;95561.09;;;1.71;78.47
19761;BME280;10039;42.632;23.408;2023-12-29T04:09:42;95611.38;;;2.16;78.00
19761;BME280;10039;42.632;23.408;2023-12-29T04:12:15;95555.22;;;1.77;77.69
19761;BME280;10039;42.632;23.408;2023-12-29T04:14:51;95605.88;;;2.05;77.81
19761;BME280;10039;42.632;23.408;2023-12-29T04:17:18;95585.69;;;2.09;77.44
19761;BME280;10039;42.632;23.408;2023-12-29T04:19:50;95588.41;;;1.97;77.32
19761;BME280;10039;42.632;23.408;2023-12-29T04:22:21;95607.22;;;2.15;77.17
19761;BME280;10039;42.632;23.408;2023-12-29T04:24:48;95572.38;;;1.87;77.12
19761;BME280;10039;42.632;23.408;2023-12-29T04:27:25;95575.78;;;1.87;76.75
19761;BME280;10039;42.632;23.408;2023-12-29T04:29:59;95560.81;;;1.76;76.84
19761;BME280;10039;42.632;23.408;2023-12-29T04:32:38;95568.47;;;1.81;77.22
19761;BME280;10039;42.632;23.408;2023-12-29T04:35:13;95554.63;;;1.84;76.65
19761;BME280;10039;42.632;23.408;2023-12-29T04:37:47;95553.34;;;1.78;76.87
19761;BME280;10039;42.632;23.408;2023-12-29T04:40:15;95576.34;;;1.96;76.62
19761;BME280;10039;42.632;23.408;2023-12-29T04:42:48;95622.78;;;2.04;76.32
19761;BME280;10039;42.632;23.408;2023-12-29T04:45:20;95565.34;;;1.75;76.81
19761;BME280;10039;42.632;23.408;2023-12-29T04:47:46;95562.28;;;1.58;76.42
19761;BME280;10039;42.632;23.408;2023-12-29T04:50:22;95553.88;;;1.37;76.28
19761;BME280;10039;42.632;23.408;2023-12-29T04:52:57;95557.44;;;1.44;76.34
19761;BME280;10039;42.632;23.408;2023-12-29T04:55:23;95570.84;;;1.70;76.65
19761;BME280;10039;42.632;23.408;2023-12-29T04:57:57;95614.38;;;1.83;76.99
19761;BME280;10039;42.632;23.408;2023-12-29T05:00:34;95578.47;;;1.75;76.76
19761;BME280;10039;42.632;23.408;2023-12-29T05:03:08;95573.81;;;1.84;76.54
19761;BME280;10039;42.632;23.408;2023-12-29T05:05:34;95592.72;;;1.74;76.23
19761;BME280;10039;42.632;23.408;2023-12-29T05:08:04;95553.53;;;1.54;76.11
19761;BME280;10039;42.632;23.408;2023-12-29T05:10:31;95544.38;;;1.48;76.25
19761;BME280;10039;42.632;23.408;2023-12-29T05:13:08;95544.38;;;1.48;76.25
19761;BME280;10039;42.632;23.408;2023-12-29T05:15:42;95578.56;;;1.79;76.19
19761;BME280;10039;42.632;23.408;2023-12-29T05:18:07;95530.53;;;1.51;76.28
19761;BME280;10039;42.632;23.408;2023-12-29T05:20:45;95530.38;;;1.44;76.65
19761;BME280;10039;42.632;23.408;2023-12-29T05:23:29;95551.16;;;1.49;76.96
19761;BME280;10039;42.632;23.408;2023-12-29T05:25:55;95535.47;;;1.52;76.66
19761;BME280;10039;42.632;23.408;2023-12-29T05:28:21;95526.31;;;1.46;76.57
19761;BME280;10039;42.632;23.408;2023-12-29T05:30:55;95528.16;;;1.30;76.61
19761;BME280;10039;42.632;23.408;2023-12-29T05:33:32;95548.44;;;1.45;76.87
19761;BME280;10039;42.632;23.408;2023-12-29T05:36:10;95564.06;;;1.69;76.42
19761;BME280;10039;42.632;23.408;2023-12-29T05:38:52;95547.41;;;1.65;76.29
19761;BME280;10039;42.632;23.408;2023-12-29T05:41:20;95593.75;;;2.01;76.46
19761;BME280;10039;42.632;23.408;2023-12-29T05:43:51;95574.41;;;1.78;76.06
19761;BME280;10039;42.632;23.408;2023-12-29T05:46:18;95606.75;;;1.94;76.24
19761;BME280;10039;42.632;23.408;2023-12-29T05:48:49;95545.31;;;1.55;75.97
19761;BME280;10039;42.632;23.408;2023-12-29T05:51:16;95617.34;;;1.82;76.35
19761;BME280;10039;42.632;23.408;2023-12-29T05:53:42;95586.59;;;1.55;76.15
19761;BME280;10039;42.632;23.408;2023-12-29T05:56:12;95554.28;;;1.39;76.01
19761;BME280;10039;42.632;23.408;2023-12-29T05:59:03;95558.28;;;1.33;76.04
19761;BME280;10039;42.632;23.408;2023-12-29T06:01:30;95593.13;;;1.45;76.39
19761;BME280;10039;42.632;23.408;2023-12-29T06:04:19;95568.69;;;1.45;76.78
19761;BME280;10039;42.632;23.408;2023-12-29T06:06:51;95558.03;;;1.38;77.04
19761;BME280;10039;42.632;23.408;2023-12-29T06:09:24;95579.75;;;1.50;77.13
19761;BME280;10039;42.632;23.408;2023-12-29T06:11:52;95549.03;;;1.23;76.55
19761;BME280;10039;42.632;23.408;2023-12-29T06:14:42;95596.28;;;1.51;76.74
19761;BME280;10039;42.632;23.408;2023-12-29T06:17:17;95574.78;;;1.33;76.90
19761;BME280;10039;42.632;23.408;2023-12-29T06:19:55;95583.50;;;1.65;77.23
19761;BME280;10039;42.632;23.408;2023-12-29T06:22:32;95543.41;;;1.25;76.80
19761;BME280;10039;42.632;23.408;2023-12-29T06:25:04;95514.91;;;1.11;76.97
19761;BME280;10039;42.632;23.408;2023-12-29T06:27:39;95556.38;;;1.18;77.04
19761;BME280;10039;42.632;23.408;2023-12-29T06:30:16;95546.25;;;1.05;77.60
19761;BME280;10039;42.632;23.408;2023-12-29T06:32:48;95610.59;;;1.10;78.24
19761;BME280;10039;42.632;23.408;2023-12-29T06:35:14;95546.75;;;0.95;78.85
19761;BME280;10039;42.632;23.408;2023-12-29T06:37:49;95564.69;;;1.20;78.39
19761;BME280;10039;42.632;23.408;2023-12-29T06:40:25;95585.56;;;1.44;78.22
19761;BME280;10039;42.632;23.408;2023-12-29T06:43:30;95537.44;;;0.97;78.37
19761;BME280;10039;42.632;23.408;2023-12-29T06:46:03;95538.09;;;0.94;78.62
19761;BME280;10039;42.632;23.408;2023-12-29T06:48:39;95583.09;;;1.35;78.69
19761;BME280;10039;42.632;23.408;2023-12-29T06:51:07;95578.91;;;1.19;78.60
19761;BME280;10039;42.632;23.408;2023-12-29T06:53:53;95538.78;;;0.91;79.02
19761;BME280;10039;42.632;23.408;2023-12-29T06:56:26;95572.25;;;0.94;79.70
19761;BME280;10039;42.632;23.408;2023-12-29T06:58:53;95580.56;;;0.96;79.88
19761;BME280;10039;42.632;23.408;2023-12-29T07:01:29;95568.91;;;1.09;80.36
19761;BME280;10039;42.632;23.408;2023-12-29T07:04:01;95571.88;;;1.08;80.73
19761;BME280;10039;42.632;23.408;2023-12-29T07:06:30;95544.22;;;0.98;81.25
19761;BME280;10039;42.632;23.408;2023-12-29T07:09:04;95559.16;;;1.09;81.17
19761;BME280;10039;42.632;23.408;2023-12-29T07:11:36;95595.16;;;1.52;81.27
19761;BME280;10039;42.632;23.408;2023-12-29T07:14:02;95577.53;;;1.52;80.96
19761;BME280;10039;42.632;23.408;2023-12-29T07:16:36;95575.00;;;1.56;81.12
19761;BME280;10039;42.632;23.408;2023-12-29T07:19:02;95553.97;;;1.56;80.93
19761;BME280;10039;42.632;23.408;2023-12-29T07:21:28;95563.63;;;1.83;80.76
19761;BME280;10039;42.632;23.408;2023-12-29T07:23:57;95574.00;;;1.91;80.26
19761;BME280;10039;42.632;23.408;2023-12-29T07:26:26;95570.56;;;2.06;80.23
19761;BME280;10039;42.632;23.408;2023-12-29T07:28:58;95557.75;;;2.05;79.94
19761;BME280;10039;42.632;23.408;2023-12-29T07:31:25;95587.91;;;2.41;79.58
19761;BME280;10039;42.632;23.408;2023-12-29T07:33:58;95559.66;;;2.38;79.36
19761;BME280;10039;42.632;23.408;2023-12-29T07:36:25;95578.81;;;2.73;78.67
19761;BME280;10039;42.632;23.408;2023-12-29T07:38:54;95542.50;;;2.63;77.85
19761;BME280;10039;42.632;23.408;2023-12-29T07:41:20;95545.19;;;2.86;77.85
19761;BME280;10039;42.632;23.408;2023-12-29T07:43:45;95516.91;;;2.83;77.83
19761;BME280;10039;42.632;23.408;2023-12-29T07:46:33;95527.38;;;2.98;77.53
19761;BME280;10039;42.632;23.408;2023-12-29T07:48:59;95554.25;;;3.26;77.76
19761;BME280;10039;42.632;23.408;2023-12-29T07:51:30;95525.25;;;3.07;78.67
19761;BME280;10039;42.632;23.408;2023-12-29T07:53:57;95583.22;;;3.45;78.65
19761;BME280;10039;42.632;23.408;2023-12-29T07:56:28;95528.31;;;3.09;78.77
19761;BME280;10039;42.632;23.408;2023-12-29T07:58:55;95568.16;;;3.45;79.24
19761;BME280;10039;42.632;23.408;2023-12-29T08:01:28;95601.13;;;3.77;79.02
19761;BME280;10039;42.632;23.408;2023-12-29T08:04:04;95594.91;;;3.89;78.64
19761;BME280;10039;42.632;23.408;2023-12-29T08:06:38;95559.72;;;3.59;78.33
19761;BME280;10039;42.632;23.408;2023-12-29T08:09:04;95575.44;;;3.74;77.48
19761;BME280;10039;42.632;23.408;2023-12-29T08:11:31;95586.22;;;3.88;77.45
19761;BME280;10039;42.632;23.408;2023-12-29T08:14:01;95581.22;;;4.06;78.12
19761;BME280;10039;42.632;23.408;2023-12-29T08:16:26;95597.81;;;4.29;77.48
19761;BME280;10039;42.632;23.408;2023-12-29T08:18:52;95551.75;;;3.78;76.05
19761;BME280;10039;42.632;23.408;2023-12-29T08:21:22;95540.97;;;3.64;76.58
19761;BME280;10039;42.632;23.408;2023-12-29T08:23:49;95601.53;;;4.02;77.07
19761;BME280;10039;42.632;23.408;2023-12-29T08:26:15;95562.72;;;3.80;77.14
19761;BME280;10039;42.632;23.408;2023-12-29T08:28:47;95574.25;;;3.72;77.16
19761;BME280;10039;42.632;23.408;2023-12-29T08:31:14;95561.06;;;3.72;77.63
19761;BME280;10039;42.632;23.408;2023-12-29T08:33:48;95569.56;;;3.84;78.11
19761;BME280;10039;42.632;23.408;2023-12-29T08:36:43;95555.03;;;3.71;78.53
19761;BME280;10039;42.632;23.408;2023-12-29T08:39:13;95605.88;;;4.13;78.17
19761;BME280;10039;42.632;23.408;2023-12-29T08:41:50;95616.06;;;4.15;77.51
19761;BME280;10039;42.632;23.408;2023-12-29T08:44:22;95571.31;;;3.77;77.62
19761;BME280;10039;42.632;23.408;2023-12-29T08:46:48;95564.13;;;3.74;77.57
19761;BME280;10039;42.632;23.408;2023-12-29T08:49:19;95582.63;;;4.00;78.69
19761;BME280;10039;42.632;23.408;2023-12-29T08:51:45;95596.59;;;4.23;78.58
19761;BME280;10039;42.632;23.408;2023-12-29T08:54:11;95605.22;;;4.45;78.40
19761;BME280;10039;42.632;23.408;2023-12-29T08:56:43;95580.75;;;4.48;77.89
19761;BME280;10039;42.632;23.408;2023-12-29T08:59:09;95589.59;;;4.59;76.56
19761;BME280;10039;42.632;23.408;2023-12-29T09:01:42;95561.44;;;4.44;76.89
19761;BME280;10039;42.632;23.408;2023-12-29T09:04:09;95560.00;;;4.50;76.59
19761;BME280;10039;42.632;23.408;2023-12-29T09:06:42;95555.41;;;4.44;77.29
19761;BME280;10039;42.632;23.408;2023-12-29T09:09:17;95571.44;;;4.58;77.30
19761;BME280;10039;42.632;23.408;2023-12-29T09:11:44;95569.81;;;4.79;77.16
19761;BME280;10039;42.632;23.408;2023-12-29T09:14:18;95608.31;;;5.06;76.25
19761;BME280;10039;42.632;23.408;2023-12-29T09:16:44;95530.53;;;4.78;75.91
19761;BME280;10039;42.632;23.408;2023-12-29T09:19:16;95571.78;;;5.15;76.21
19761;BME280;10039;42.632;23.408;2023-12-29T09:21:54;95577.53;;;5.57;76.09
19761;BME280;10039;42.632;23.408;2023-12-29T09:24:26;95555.78;;;5.38;75.40
19761;BME280;10039;42.632;23.408;2023-12-29T09:27:01;95583.66;;;5.68;74.49
19761;BME280;10039;42.632;23.408;2023-12-29T09:29:27;95539.59;;;5.46;73.83
19761;BME280;10039;42.632;23.408;2023-12-29T09:32:04;95541.53;;;5.49;73.69
19761;BME280;10039;42.632;23.408;2023-12-29T09:34:39;95520.78;;;5.54;73.00
19761;BME280;10039;42.632;23.408;2023-12-29T09:37:17;95560.00;;;5.82;72.43
19761;BME280;10039;42.632;23.408;2023-12-29T09:39:43;95515.06;;;5.52;72.99
19761;BME280;10039;42.632;23.408;2023-12-29T09:42:24;95508.31;;;5.55;73.46
19761;BME280;10039;42.632;23.408;2023-12-29T09:45:05;95531.91;;;5.74;73.81
19761;BME280;10039;42.632;23.408;2023-12-29T09:47:51;95519.19;;;5.90;73.11
19761;BME280;10039;42.632;23.408;2023-12-29T09:50:31;95544.78;;;6.19;72.71
19761;BME280;10039;42.632;23.408;2023-12-29T09:53:08;95522.03;;;6.11;72.95
19761;BME280;10039;42.632;23.408;2023-12-29T09:55:45;95525.63;;;6.43;73.52
19761;BME280;10039;42.632;23.408;2023-12-29T09:58:15;95489.09;;;6.15;72.90
19761;BME280;10039;42.632;23.408;2023-12-29T10:00:52;95531.03;;;6.63;73.41
19761;BME280;10039;42.632;23.408;2023-12-29T10:03:43;95527.31;;;6.75;73.03
19761;BME280;10039;42.632;23.408;2023-12-29T10:06:16;95531.47;;;6.72;72.57
19761;BME280;10039;42.632;23.408;2023-12-29T10:08:56;95497.28;;;6.54;72.41
19761;BME280;10039;42.632;23.408;2023-12-29T10:11:43;95462.03;;;6.46;72.98
19761;BME280;10039;42.632;23.408;2023-12-29T10:17:36;95503.84;;;6.87;73.35
19761;BME280;10039;42.632;23.408;2023-12-29T10:20:30;95497.81;;;6.90;73.07
19761;BME280;10039;42.632;23.408;2023-12-29T10:23:23;95505.00;;;6.83;72.95
19761;BME280;10039;42.632;23.408;2023-12-29T10:25:58;95495.13;;;6.76;73.12
19761;BME280;10039;42.632;23.408;2023-12-29T10:28:24;95500.06;;;6.88;73.05
19761;BME280;10039;42.632;23.408;2023-12-29T10:33:34;95465.19;;;6.79;72.85
19761;BME280;10039;42.632;23.408;2023-12-29T10:36:03;95475.13;;;7.03;72.63
19761;BME280;10039;42.632;23.408;2023-12-29T10:38:39;95437.13;;;6.71;72.88
19761;BME280;10039;42.632;23.408;2023-12-29T10:44:09;95430.00;;;6.96;72.72
19761;BME280;10039;42.632;23.408;2023-12-29T10:46:35;95429.63;;;6.91;73.10
19761;BME280;10039;42.632;23.408;2023-12-29T10:49:12;95443.31;;;7.24;72.65
19761;BME280;10039;42.632;23.408;2023-12-29T10:51:39;95448.63;;;7.31;72.48
19761;BME280;10039;42.632;23.408;2023-12-29T10:54:21;95461.53;;;7.36;73.03
19761;BME280;10039;42.632;23.408;2023-12-29T10:57:02;95402.75;;;7.17;72.51
19761;BME280;10039;42.632;23.408;2023-12-29T10:59:36;95386.81;;;7.20;72.44
19761;BME280;10039;42.632;23.408;2023-12-29T11:02:02;95427.41;;;7.59;72.25
19761;BME280;10039;42.632;23.408;2023-12-29T11:04:46;95386.47;;;7.39;71.75
19761;BME280;10039;42.632;23.408;2023-12-29T11:07:12;95387.59;;;7.56;71.40
19761;BME280;10039;42.632;23.408;2023-12-29T11:09:48;95391.00;;;7.63;71.80
19761;BME280;10039;42.632;23.408;2023-12-29T11:12:14;95348.53;;;7.35;71.29
19761;BME280;10039;42.632;23.408;2023-12-29T11:14:43;95383.41;;;7.72;71.41
19761;BME280;10039;42.632;23.408;2023-12-29T11:17:20;95357.97;;;7.68;71.55
19761;BME280;10039;42.632;23.408;2023-12-29T11:19:47;95348.50;;;7.63;71.13
19761;BME280;10039;42.632;23.408;2023-12-29T11:22:22;95342.44;;;7.59;70.77
19761;BME280;10039;42.632;23.408;2023-12-29T11:24:56;95337.13;;;7.66;70.35
19761;BME280;10039;42.632;23.408;2023-12-29T11:27:31;95406.09;;;8.04;71.40
19761;BME280;10039;42.632;23.408;2023-12-29T11:30:20;95366.63;;;8.03;71.00
19761;BME280;10039;42.632;23.408;2023-12-29T11:41:43;95391.28;;;8.21;70.18
19761;BME280;10039;42.632;23.408;2023-12-29T11:44:24;95340.81;;;8.07;70.91
19761;BME280;10039;42.632;23.408;2023-12-29T11:46:50;95321.81;;;8.12;70.64
19761;BME280;10039;42.632;23.408;2023-12-29T11:49:16;95335.03;;;8.29;70.22
19761;BME280;10039;42.632;23.408;2023-12-29T11:51:50;95332.38;;;8.29;70.45
19761;BME280;10039;42.632;23.408;2023-12-29T11:54:26;95314.56;;;8.16;69.99
19761;BME280;10039;42.632;23.408;2023-12-29T11:56:59;95343.75;;;8.37;70.42
19761;BME280;10039;42.632;23.408;2023-12-29T11:59:25;95370.63;;;8.53;70.84
19761;BME280;10039;42.632;23.408;2023-12-29T12:01:59;95351.34;;;8.42;70.55
19761;BME280;10039;42.632;23.408;2023-12-29T12:04:39;95333.13;;;8.37;70.19
19761;BME280;10039;42.632;23.408;2023-12-29T12:09:50;95356.50;;;8.70;69.89
19761;BME280;10039;42.632;23.408;2023-12-29T12:12:38;95355.72;;;8.73;69.74
19761;BME280;10039;42.632;23.408;2023-12-29T12:18:04;95353.00;;;8.80;70.06
19761;BME280;10039;42.632;23.408;2023-12-29T12:20:35;95300.38;;;8.50;69.77
19761;BME280;10039;42.632;23.408;2023-12-29T12:23:08;95316.31;;;8.50;69.74
19761;BME280;10039;42.632;23.408;2023-12-29T12:25:39;95345.88;;;8.70;69.79
19761;BME280;10039;42.632;23.408;2023-12-29T12:28:13;95334.47;;;8.66;69.80
19761;BME280;10039;42.632;23.408;2023-12-29T12:30:41;95334.75;;;8.85;69.05
19761;BME280;10039;42.632;23.408;2023-12-29T12:33:12;95325.25;;;8.84;69.41
19761;BME280;10039;42.632;23.408;2023-12-29T12:35:45;95363.13;;;9.05;68.88
19761;BME280;10039;42.632;23.408;2023-12-29T12:38:20;95305.50;;;8.78;69.30
19761;BME280;10039;42.632;23.408;2023-12-29T12:40:48;95299.00;;;8.83;69.19
19761;BME280;10039;42.632;23.408;2023-12-29T12:43:14;95344.41;;;9.12;68.51
19761;BME280;10039;42.632;23.408;2023-12-29T12:45:59;95329.69;;;9.01;68.78
19761;BME280;10039;42.632;23.408;2023-12-29T12:48:47;95362.94;;;9.30;68.84
19761;BME280;10039;42.632;23.408;2023-12-29T12:51:13;95357.97;;;9.35;68.21
19761;BME280;10039;42.632;23.408;2023-12-29T12:53:45;95314.78;;;9.10;68.42
19761;BME280;10039;42.632;23.408;2023-12-29T12:56:13;95342.06;;;9.21;68.29
19761;BME280;10039;42.632;23.408;2023-12-29T12:58:46;95355.94;;;9.46;68.25
19761;BME280;10039;42.632;23.408;2023-12-29T13:01:12;95355.16;;;9.49;67.75
19761;BME280;10039;42.632;23.408;2023-12-29T13:03:44;95315.72;;;9.37;68.37
19761;BME280;10039;42.632;23.408;2023-12-29T13:06:10;95349.25;;;9.72;68.00
19761;BME280;10039;42.632;23.408;2023-12-29T13:08:43;95310.75;;;9.39;67.91
19761;BME280;10039;42.632;23.408;2023-12-29T13:11:12;95348.06;;;9.76;67.69
19761;BME280;10039;42.632;23.408;2023-12-29T13:13:48;95345.00;;;9.78;67.67
19761;BME280;10039;42.632;23.408;2023-12-29T13:16:37;95350.22;;;9.88;66.62
19761;BME280;10039;42.632;23.408;2023-12-29T13:19:23;95346.00;;;9.91;65.89
19761;BME280;10039;42.632;23.408;2023-12-29T13:21:55;95324.38;;;9.85;65.45
19761;BME280;10039;42.632;23.408;2023-12-29T13:24:23;95336.03;;;10.02;64.60
19761;BME280;10039;42.632;23.408;2023-12-29T13:27:09;95340.09;;;10.13;64.56
19761;BME280;10039;42.632;23.408;2023-12-29T13:29:44;95297.66;;;9.89;64.07
19761;BME280;10039;42.632;23.408;2023-12-29T13:32:21;95320.03;;;10.02;62.99
19761;BME280;10039;42.632;23.408;2023-12-29T13:35:22;95299.84;;;10.01;63.18
19761;BME280;10039;42.632;23.408;2023-12-29T13:38:10;95289.78;;;9.78;63.27
19761;BME280;10039;42.632;23.408;2023-12-29T13:43:54;95277.25;;;9.75;62.01
19761;BME280;10039;42.632;23.408;2023-12-29T13:46:26;95292.44;;;9.78;61.88
19761;BME280;10039;42.632;23.408;2023-12-29T13:48:53;95279.47;;;9.84;61.50
19761;BME280;10039;42.632;23.408;2023-12-29T13:51:29;95336.94;;;10.21;61.57
19761;BME280;10039;42.632;23.408;2023-12-29T13:54:01;95294.81;;;10.06;61.32
19761;BME280;10039;42.632;23.408;2023-12-29T13:56:35;95283.88;;;9.97;61.03
19761;BME280;10039;42.632;23.408;2023-12-29T13:59:01;95324.31;;;10.25;60.79